createdAt,value
2022-09-28T00:02:17.728Z,98453.84
2022-09-28T00:04:45.367Z,98448.75
2022-09-28T00:07:12.717Z,98437.38
2022-09-28T00:09:40.169Z,98438.31
2022-09-28T00:12:07.540Z,98437.72
2022-09-28T00:14:34.665Z,98427.19
2022-09-28T00:17:02.065Z,98429.72
2022-09-28T00:19:29.854Z,98427.06
2022-09-28T00:21:57.374Z,98414.91
2022-09-28T00:24:27.710Z,98418.50
2022-09-28T00:26:56.055Z,98416.44
2022-09-28T00:29:27.618Z,98419.66
2022-09-28T00:32:00.349Z,98407.59
2022-09-28T00:34:27.996Z,98398.81
2022-09-28T00:36:55.216Z,98394.50
2022-09-28T00:39:22.811Z,98398.91
2022-09-28T00:41:50.599Z,98401.28
2022-09-28T00:44:27.897Z,98397.88
2022-09-28T00:47:01.217Z,98388.63
2022-09-28T00:49:51.417Z,98393.50
2022-09-28T00:52:26.819Z,98383.53
2022-09-28T00:54:55.728Z,98379.56
2022-09-28T00:57:24.234Z,98388.41
2022-09-28T00:59:52.418Z,98378.72
2022-09-28T01:02:20.426Z,98379.06
2022-09-28T01:04:48.472Z,98370.03
2022-09-28T01:07:16.502Z,98372.50
2022-09-28T01:09:46.165Z,98368.91
2022-09-28T01:12:14.210Z,98364.34
2022-09-28T01:14:41.614Z,98359.66
2022-09-28T01:17:24.659Z,98355.91
2022-09-28T01:20:07.318Z,98347.50
2022-09-28T01:22:59.348Z,98345.97
2022-09-28T01:25:45.265Z,98343.34
2022-09-28T01:28:24.089Z,98344.88
2022-09-28T01:30:56.774Z,98334.81
2022-09-28T01:33:26.731Z,98333.13
2022-09-28T01:36:06.940Z,98330.47
2022-09-28T01:38:46.609Z,98334.22
2022-09-28T01:41:17.700Z,98323.78
2022-09-28T01:43:52.732Z,98325.47
2022-09-28T01:46:22.033Z,98330.47
2022-09-28T01:48:55.604Z,98316.34
2022-09-28T01:51:32.471Z,98313.06
2022-09-28T01:54:09.804Z,98313.13
2022-09-28T01:56:40.411Z,98317.31
2022-09-28T01:59:13.417Z,98308.56
2022-09-28T02:01:44.374Z,98308.56
2022-09-28T02:04:11.808Z,98316.47
2022-09-28T02:06:47.330Z,98299.94
2022-09-28T02:09:21.323Z,98304.88
2022-09-28T02:11:52.016Z,98294.50
2022-09-28T02:14:19.987Z,98284.25
2022-09-28T02:16:50.857Z,98281.41
2022-09-28T02:19:26.848Z,98273.25
2022-09-28T02:21:58.106Z,98278.34
2022-09-28T02:24:29.184Z,98272.63
2022-09-28T02:27:00.553Z,98277.59
2022-09-28T02:29:33.512Z,98268.75
2022-09-28T02:32:01.344Z,98267.06
2022-09-28T02:34:28.624Z,98266.66
2022-09-28T02:36:56.318Z,98262.34
2022-09-28T02:39:23.916Z,98267.03
2022-09-28T02:42:01.138Z,98261.25
2022-09-28T02:44:48.856Z,98253.53
2022-09-28T02:47:22.834Z,98255.41
2022-09-28T02:50:03.383Z,98257.00
2022-09-28T02:52:36.143Z,98242.97
2022-09-28T02:55:22.347Z,98245.81
2022-09-28T02:57:52.925Z,98238.66
2022-09-28T03:00:23.070Z,98238.22
2022-09-28T03:02:59.805Z,98240.75
2022-09-28T03:05:34.809Z,98227.66
2022-09-28T03:08:25.728Z,98234.44
2022-09-28T03:10:53.223Z,98235.97
2022-09-28T03:13:20.745Z,98230.88
2022-09-28T03:15:49.194Z,98234.63
2022-09-28T03:18:17.932Z,98225.03
2022-09-28T03:20:45.191Z,98224.00
2022-09-28T03:23:24.814Z,98216.56
2022-09-28T03:25:53.117Z,98225.88
2022-09-28T03:28:21.915Z,98217.91
2022-09-28T03:30:49.843Z,98222.13
2022-09-28T03:33:17.125Z,98221.94
2022-09-28T03:35:46.951Z,98219.13
2022-09-28T03:38:15.128Z,98209.72
2022-09-28T03:40:43.415Z,98205.94
2022-09-28T03:43:10.786Z,98197.75
2022-09-28T03:45:38.253Z,98205.66
2022-09-28T03:48:05.640Z,98192.47
2022-09-28T03:50:34.491Z,98183.44
2022-09-28T03:53:02.585Z,98184.94
2022-09-28T03:55:29.965Z,98179.78
2022-09-28T03:57:57.880Z,98175.53
2022-09-28T04:00:25.570Z,98178.19
2022-09-28T04:02:53.862Z,98173.34
2022-09-28T04:05:21.781Z,98169.72
2022-09-28T04:07:49.241Z,98170.72
2022-09-28T04:10:16.655Z,98169.63
2022-09-28T04:12:45.114Z,98165.56
2022-09-28T04:15:12.931Z,98165.69
2022-09-28T04:17:43.102Z,98161.44
2022-09-28T04:20:22.965Z,98174.31
2022-09-28T04:23:01.336Z,98164.44
2022-09-28T04:25:29.666Z,98154.81
2022-09-28T04:28:15.851Z,98154.81
2022-09-28T04:30:43.622Z,98159.72
2022-09-28T04:33:11.473Z,98153.28
2022-09-28T04:35:39.479Z,98154.91
2022-09-28T04:38:07.050Z,98154.91
2022-09-28T04:40:34.615Z,98145.28
2022-09-28T04:43:02.534Z,98150.28
2022-09-28T04:45:30.065Z,98148.56
2022-09-28T04:48:06.320Z,98140.09
2022-09-28T04:51:01.147Z,98151.22
2022-09-28T04:53:28.963Z,98146.28
2022-09-28T04:56:00.852Z,98142.53
2022-09-28T04:58:29.322Z,98141.19
2022-09-28T05:01:00.866Z,98139.00
2022-09-28T05:03:47.227Z,98133.41
2022-09-28T05:06:28.811Z,98138.03
2022-09-28T05:09:02.109Z,98139.84
2022-09-28T05:11:29.265Z,98133.63
2022-09-28T05:13:56.847Z,98130.13
2022-09-28T05:16:26.510Z,98119.47
2022-09-28T05:19:12.919Z,98122.31
2022-09-28T05:21:44.415Z,98051.56
2022-09-28T05:24:11.998Z,98116.88
2022-09-28T05:26:40.479Z,98114.69
2022-09-28T05:29:10.603Z,98123.34
2022-09-28T05:31:40.618Z,98113.75
2022-09-28T05:34:40.365Z,98044.31
2022-09-28T05:37:09.214Z,98117.78
2022-09-28T05:39:36.238Z,98119.81
2022-09-28T05:42:03.828Z,98107.91
2022-09-28T05:44:31.396Z,98113.72
2022-09-28T05:46:58.626Z,98102.72
2022-09-28T05:49:29.397Z,98106.41
2022-09-28T05:51:57.257Z,98102.06
2022-09-28T05:54:25.317Z,98092.91
2022-09-28T05:56:53.113Z,98091.75
2022-09-28T05:59:20.269Z,98095.03
2022-09-28T06:01:47.517Z,98092.94
2022-09-28T06:04:16.442Z,98093.06
2022-09-28T06:06:45.248Z,98089.81
2022-09-28T06:09:12.750Z,98085.38
2022-09-28T06:12:09.114Z,98074.88
2022-09-28T06:14:44.971Z,98072.47
2022-09-28T06:17:12.877Z,98079.84
2022-09-28T06:19:40.370Z,98082.41
2022-09-28T06:22:17.405Z,98079.47
2022-09-28T06:24:52.433Z,98083.69
2022-09-28T06:27:19.954Z,98087.63
2022-09-28T06:29:47.210Z,98091.53
2022-09-28T06:32:14.659Z,98084.75
2022-09-28T06:34:44.083Z,98091.31
2022-09-28T06:37:11.425Z,98095.22
2022-09-28T06:39:39.559Z,98096.63
2022-09-28T06:42:07.043Z,98097.97
2022-09-28T06:44:53.285Z,98089.72
2022-09-28T06:47:53.678Z,98087.69
2022-09-28T06:50:27.905Z,98079.53
2022-09-28T06:53:12.299Z,98082.84
2022-09-28T06:55:51.841Z,98075.97
2022-09-28T06:58:20.356Z,98083.69
2022-09-28T07:00:48.978Z,98084.44
2022-09-28T07:03:20.282Z,98082.50
2022-09-28T07:06:20.910Z,98079.75
2022-09-28T07:09:29.260Z,98079.53
2022-09-28T07:12:29.102Z,98072.00
2022-09-28T07:15:06.495Z,98077.06
2022-09-28T07:17:42.791Z,98071.78
2022-09-28T07:20:19.220Z,98068.81
2022-09-28T07:22:52.840Z,98067.50
2022-09-28T07:25:22.123Z,98063.25
2022-09-28T07:28:27.674Z,98075.19
2022-09-28T07:31:30.248Z,98073.72
2022-09-28T07:34:08.383Z,98071.47
2022-09-28T07:36:57.551Z,98082.84
2022-09-28T07:39:25.266Z,98076.16
2022-09-28T07:41:56.725Z,98072.81
2022-09-28T07:44:28.394Z,98069.81
2022-09-28T07:46:56.876Z,98073.81
2022-09-28T07:49:33.115Z,98070.59
2022-09-28T07:52:15.409Z,98073.16
2022-09-28T07:55:06.659Z,98073.75
2022-09-28T07:57:59.780Z,98067.84
2022-09-28T08:01:07.173Z,98063.75
2022-09-28T08:03:35.505Z,98061.59
2022-09-28T08:06:04.842Z,98066.81
2022-09-28T08:08:33.492Z,98052.72
2022-09-28T08:11:00.741Z,98060.31
2022-09-28T08:13:47.081Z,98047.66
2022-09-28T08:16:33.221Z,98053.34
2022-09-28T08:19:10.992Z,98049.63
2022-09-28T08:21:47.130Z,98058.75
2022-09-28T08:24:15.815Z,98053.22
2022-09-28T08:26:44.129Z,98060.22
2022-09-28T08:29:12.969Z,98058.34
2022-09-28T08:32:03.745Z,98062.66
2022-09-28T08:34:34.057Z,98053.38
2022-09-28T08:37:16.538Z,98056.03
2022-09-28T08:39:43.854Z,98057.13
2022-09-28T08:42:37.113Z,98047.13
2022-09-28T08:45:31.730Z,98047.97
2022-09-28T08:48:56.947Z,98045.63
2022-09-28T08:51:51.424Z,98043.44
2022-09-28T08:54:52.234Z,98037.97
2022-09-28T08:57:45.391Z,98038.91
2022-09-28T09:00:19.883Z,98036.78
2022-09-28T09:02:48.127Z,98042.47
2022-09-28T09:05:23.632Z,98036.69
2022-09-28T09:08:16.873Z,98040.81
2022-09-28T09:10:45.488Z,98040.34
2022-09-28T09:13:33.829Z,98052.31
2022-09-28T09:16:23.744Z,98056.91
2022-09-28T09:19:14.764Z,98055.00
2022-09-28T09:22:17.010Z,98054.53
2022-09-28T09:24:47.605Z,98049.63
2022-09-28T09:27:24.473Z,98057.00
2022-09-28T09:30:11.043Z,98054.94
2022-09-28T09:32:49.430Z,98057.22
2022-09-28T09:35:22.485Z,98068.69
2022-09-28T09:38:19.814Z,98060.50
2022-09-28T09:41:01.325Z,98059.06
2022-09-28T09:44:19.569Z,98064.47
2022-09-28T09:47:09.423Z,98061.81
2022-09-28T09:49:55.858Z,98058.09
2022-09-28T09:52:27.083Z,98056.16
2022-09-28T09:55:04.108Z,98060.25
2022-09-28T09:57:54.441Z,98052.06
2022-09-28T10:00:35.447Z,98058.91
2022-09-28T10:03:22.290Z,98063.38
2022-09-28T10:05:58.345Z,98062.19
2022-09-28T10:08:27.306Z,98062.19
2022-09-28T10:11:02.979Z,98070.50
2022-09-28T10:13:32.368Z,98060.25
2022-09-28T10:16:03.099Z,98068.72
2022-09-28T10:18:36.832Z,98061.94
2022-09-28T10:21:38.731Z,98071.72
2022-09-28T10:24:34.846Z,98064.84
2022-09-28T10:27:28.758Z,98065.69
2022-09-28T10:29:58.536Z,98064.84
2022-09-28T10:32:27.570Z,98065.31
2022-09-28T10:35:12.124Z,98067.63
2022-09-28T10:37:59.460Z,98069.53
2022-09-28T10:41:00.078Z,98066.63
2022-09-28T10:44:06.755Z,98061.47
2022-09-28T10:47:08.404Z,98052.28
2022-09-28T10:49:47.002Z,98060.59
2022-09-28T10:52:32.152Z,98061.91
2022-09-28T10:55:00.206Z,98050.94
2022-09-28T10:57:29.271Z,98053.44
2022-09-28T11:00:03.305Z,98046.34
2022-09-28T11:02:41.050Z,98044.16
2022-09-28T11:05:22.237Z,98053.91
2022-09-28T11:07:52.535Z,98049.28
2022-09-28T11:10:26.879Z,98054.03
2022-09-28T11:12:58.338Z,98058.59
2022-09-28T11:15:32.438Z,98060.41
2022-09-28T11:18:23.160Z,98054.91
2022-09-28T11:20:50.657Z,98051.91
2022-09-28T11:23:20.716Z,98051.72
2022-09-28T11:26:18.935Z,98055.72
2022-09-28T11:28:50.937Z,98065.06
2022-09-28T11:31:26.407Z,98078.53
2022-09-28T11:34:15.431Z,98074.25
2022-09-28T11:37:12.975Z,98067.53
2022-09-28T11:39:45.500Z,98066.69
2022-09-28T11:42:16.762Z,98065.84
2022-09-28T11:44:46.732Z,98068.78
2022-09-28T11:47:33.001Z,98075.22
2022-09-28T11:50:07.067Z,98073.28
2022-09-28T11:52:44.123Z,98076.88
2022-09-28T11:55:19.389Z,98067.16
2022-09-28T11:57:49.287Z,98063.44
2022-09-28T12:00:19.839Z,98071.56
2022-09-28T12:02:51.181Z,98070.84
2022-09-28T12:05:28.186Z,98078.78
2022-09-28T12:08:09.106Z,98074.91
2022-09-28T12:10:58.350Z,98075.34
2022-09-28T12:13:48.277Z,98078.91
2022-09-28T12:19:17.094Z,98079.88
2022-09-28T12:21:47.470Z,98077.72
2022-09-28T12:24:20.832Z,98083.16
2022-09-28T12:26:57.144Z,98081.13
2022-09-28T12:29:30.097Z,98018.31
2022-09-28T12:32:01.970Z,98080.72
2022-09-28T12:34:29.196Z,98083.09
2022-09-28T12:36:56.483Z,98081.19
2022-09-28T12:39:53.504Z,98077.53
2022-09-28T12:42:20.718Z,98085.41
2022-09-28T12:44:59.267Z,98082.50
2022-09-28T12:47:38.885Z,98074.16
2022-09-28T12:53:15.403Z,98074.16
2022-09-28T12:56:00.860Z,98078.50
2022-09-28T12:58:28.023Z,98088.22
2022-09-28T13:01:14.196Z,98081.13
2022-09-28T13:03:54.143Z,98080.06
2022-09-28T13:06:47.398Z,98086.59
2022-09-28T13:09:15.186Z,98084.44
2022-09-28T13:12:01.045Z,98083.84
2022-09-28T13:14:28.741Z,98083.50
2022-09-28T13:17:09.505Z,98084.00
2022-09-28T13:19:44.946Z,98083.53
2022-09-28T13:22:12.976Z,98079.16
2022-09-28T13:24:44.748Z,98082.44
2022-09-28T13:27:23.094Z,98084.84
2022-09-28T13:29:51.328Z,98085.31
2022-09-28T13:32:18.769Z,98085.31
2022-09-28T13:34:49.025Z,98079.75
2022-09-28T13:37:25.341Z,98071.66
2022-09-28T13:39:53.019Z,98072.25
2022-09-28T13:42:25.358Z,98069.34
2022-09-28T13:44:54.829Z,98070.34
2022-09-28T13:47:37.805Z,98073.00
2022-09-28T13:50:23.014Z,98070.19
2022-09-28T13:52:50.530Z,98078.16
2022-09-28T13:55:17.554Z,98074.91
2022-09-28T13:58:08.266Z,98076.97
2022-09-28T14:00:45.771Z,98077.22
2022-09-28T14:03:15.235Z,98074.91
2022-09-28T14:06:05.773Z,98081.56
2022-09-28T14:08:36.408Z,98084.38
2022-09-28T14:11:24.825Z,98083.66
2022-09-28T14:13:58.952Z,98090.16
2022-09-28T14:16:27.754Z,98092.13
2022-09-28T14:18:58.004Z,98094.63
2022-09-28T14:21:44.181Z,98091.13
2022-09-28T14:24:14.967Z,98092.13
2022-09-28T14:27:01.354Z,98098.50
2022-09-28T14:29:29.885Z,98091.50
2022-09-28T14:31:58.479Z,98095.97
2022-09-28T14:34:37.213Z,98101.63
2022-09-28T14:37:24.588Z,98105.38
2022-09-28T14:40:10.831Z,98114.44
2022-09-28T14:42:38.055Z,98108.63
2022-09-28T14:45:07.218Z,98118.78
2022-09-28T14:47:36.643Z,98120.09
2022-09-28T14:50:22.413Z,98123.72
2022-09-28T14:52:51.923Z,98131.94
2022-09-28T14:55:24.280Z,98133.84
2022-09-28T14:57:52.568Z,98132.19
2022-09-28T15:00:26.194Z,98137.50
2022-09-28T15:02:56.488Z,98143.00
2022-09-28T15:05:24.862Z,98154.09
2022-09-28T15:07:53.372Z,98157.94
2022-09-28T15:10:33.938Z,98165.44
2022-09-28T15:13:03.480Z,98164.06
2022-09-28T15:15:35.645Z,98163.69
2022-09-28T15:18:02.990Z,98161.88
2022-09-28T15:20:38.361Z,98166.34
2022-09-28T15:23:05.641Z,98171.63
2022-09-28T15:25:33.081Z,98176.22
2022-09-28T15:28:03.974Z,98182.50
2022-09-28T15:30:32.417Z,98187.91
2022-09-28T15:33:21.142Z,98190.56
2022-09-28T15:35:51.655Z,98197.66
2022-09-28T15:38:19.059Z,98191.63
2022-09-28T15:40:47.884Z,98201.41
2022-09-28T15:43:37.057Z,98200.66
2022-09-28T15:46:26.357Z,98198.25
2022-09-28T15:49:11.505Z,98200.16
2022-09-28T15:51:56.060Z,98206.44
2022-09-28T15:54:32.990Z,98202.19
2022-09-28T15:57:05.355Z,98198.72
2022-09-28T15:59:37.308Z,98206.88
2022-09-28T16:02:11.290Z,98202.78
2022-09-28T16:04:39.848Z,98196.00
2022-09-28T16:07:10.518Z,98197.81
2022-09-28T16:09:56.980Z,98196.84
2022-09-28T16:12:31.995Z,98192.25
2022-09-28T16:15:25.238Z,98193.84
2022-09-28T16:17:54.170Z,98200.72
2022-09-28T16:20:30.072Z,98201.22
2022-09-28T16:22:59.722Z,98203.53
2022-09-28T16:25:27.564Z,98200.66
2022-09-28T16:27:55.941Z,98204.28
2022-09-28T16:30:25.151Z,98206.81
2022-09-28T16:32:52.744Z,98211.25
2022-09-28T16:35:25.552Z,98208.84
2022-09-28T16:38:05.775Z,98208.00
2022-09-28T16:40:34.120Z,98204.53
2022-09-28T16:43:05.841Z,98210.66
2022-09-28T16:45:38.221Z,98200.28
2022-09-28T16:48:06.015Z,98204.94
2022-09-28T16:50:33.143Z,98201.47
2022-09-28T16:53:22.289Z,98203.28
2022-09-28T16:55:50.115Z,98203.13
2022-09-28T16:58:25.547Z,98213.56
2022-09-28T17:01:01.184Z,98216.06
2022-09-28T17:03:29.444Z,98228.50
2022-09-28T17:05:57.322Z,98221.50
2022-09-28T17:08:27.095Z,98214.50
2022-09-28T17:11:14.765Z,98220.88
2022-09-28T17:13:44.397Z,98220.03
2022-09-28T17:16:18.256Z,98219.94
2022-09-28T17:18:51.722Z,98225.22
2022-09-28T17:21:23.535Z,98229.56
2022-09-28T17:23:52.721Z,98223.28
2022-09-28T17:26:29.619Z,98227.66
2022-09-28T17:29:01.776Z,98225.00
2022-09-28T17:31:30.241Z,98226.69
2022-09-28T17:33:57.695Z,98227.50
2022-09-28T17:36:26.883Z,98226.81
2022-09-28T17:38:56.423Z,98231.38
2022-09-28T17:41:26.387Z,98227.88
2022-09-28T17:43:53.959Z,98227.75
2022-09-28T17:46:46.156Z,98228.50
2022-09-28T17:49:17.331Z,98231.25
2022-09-28T17:51:45.839Z,98233.91
2022-09-28T17:54:21.474Z,98239.84
2022-09-28T17:56:49.052Z,98236.94
2022-09-28T17:59:20.818Z,98236.84
2022-09-28T18:01:48.685Z,98236.84
2022-09-28T18:04:39.809Z,98242.16
2022-09-28T18:07:04.202Z,98236.84
2022-09-28T18:09:31.673Z,98241.19
2022-09-28T18:12:04.330Z,98241.09
2022-09-28T18:14:34.222Z,98238.44
2022-09-28T18:17:03.912Z,98236.72
2022-09-28T18:19:32.530Z,98231.31
2022-09-28T18:22:03.492Z,98229.38
2022-09-28T18:24:33.363Z,98230.22
2022-09-28T18:27:04.184Z,98229.72
2022-09-28T18:29:33.567Z,98224.66
2022-09-28T18:32:04.050Z,98223.91
2022-09-28T18:34:31.757Z,98216.91
2022-09-28T18:36:59.127Z,98215.56
2022-09-28T18:39:26.990Z,98216.53
2022-09-28T18:41:57.710Z,98212.91
2022-09-28T18:44:25.011Z,98215.47
2022-09-28T18:46:54.998Z,98220.75
2022-09-28T18:49:26.394Z,98218.44
2022-09-28T18:51:56.292Z,98221.34
2022-09-28T18:54:24.659Z,98217.84
2022-09-28T18:56:57.640Z,98217.09
2022-09-28T18:59:26.942Z,98224.81
2022-09-28T19:01:55.258Z,98213.38
2022-09-28T19:04:24.017Z,98218.91
2022-09-28T19:06:52.717Z,98225.28
2022-09-28T19:09:31.565Z,98224.22
2022-09-28T19:12:04.541Z,98225.06
2022-09-28T19:14:39.102Z,98224.09
2022-09-28T19:17:10.348Z,98225.91
2022-09-28T19:19:39.435Z,98233.97
2022-09-28T19:22:09.272Z,98228.88
2022-09-28T19:24:39.220Z,98228.78
2022-09-28T19:27:10.175Z,98235.66
2022-09-28T19:29:39.096Z,98230.22
2022-09-28T19:32:11.560Z,98234.59
2022-09-28T19:34:39.635Z,98234.47
2022-09-28T19:37:10.241Z,98237.34
2022-09-28T19:39:37.841Z,98237.69
2022-09-28T19:42:05.811Z,98237.91
2022-09-28T19:44:34.798Z,98241.63
2022-09-28T19:47:14.447Z,98246.22
2022-09-28T19:49:42.305Z,98261.38
2022-09-28T19:52:18.481Z,98260.31
2022-09-28T19:54:55.957Z,98254.88
2022-09-28T19:57:31.362Z,98259.56
2022-09-28T20:00:06.110Z,98256.91
2022-09-28T20:02:37.484Z,98259.47
2022-09-28T20:05:07.260Z,98262.84
2022-09-28T20:07:39.560Z,98267.41
2022-09-28T20:10:13.097Z,98264.88
2022-09-28T20:12:47.917Z,98263.91
2022-09-28T20:15:16.795Z,98267.41
2022-09-28T20:17:47.841Z,98264.03
2022-09-28T20:20:15.504Z,98270.28
2022-09-28T20:22:44.071Z,98277.50
2022-09-28T20:25:11.582Z,98282.06
2022-09-28T20:27:39.967Z,98284.94
2022-09-28T20:30:07.522Z,98283.38
2022-09-28T20:32:35.601Z,98287.91
2022-09-28T20:35:02.687Z,98286.00
2022-09-28T20:37:31.120Z,98288.03
2022-09-28T20:40:01.275Z,98241.50
2022-09-28T20:42:32.124Z,98300.88
2022-09-28T20:44:59.257Z,98311.69
2022-09-28T20:47:26.558Z,98314.97
2022-09-28T20:49:54.121Z,98316.88
2022-09-28T20:52:21.359Z,98316.13
2022-09-28T20:54:48.909Z,98321.44
2022-09-28T20:57:18.684Z,98318.06
2022-09-28T20:59:48.779Z,98322.50
2022-09-28T21:02:20.063Z,98317.09
2022-09-28T21:04:47.600Z,98314.44
2022-09-28T21:07:15.105Z,98323.16
2022-09-28T21:09:42.476Z,98315.19
2022-09-28T21:12:09.699Z,98308.53
2022-09-28T21:14:36.953Z,98318.28
2022-09-28T21:17:04.340Z,98319.00
2022-09-28T21:19:32.066Z,98316.34
2022-09-28T21:21:59.543Z,98319.97
2022-09-28T21:24:27.228Z,98312.03
2022-09-28T21:26:55.783Z,98318.06
2022-09-28T21:29:22.921Z,98322.50
2022-09-28T21:31:50.338Z,98326.84
2022-09-28T21:34:21.660Z,98337.31
2022-09-28T21:36:51.596Z,98331.31
2022-09-28T21:39:19.164Z,98328.13
2022-09-28T21:41:47.069Z,98328.69
2022-09-28T21:44:14.475Z,98285.03
2022-09-28T21:46:42.228Z,98335.34
2022-09-28T21:49:10.335Z,98331.84
2022-09-28T21:51:38.442Z,98335.34
2022-09-28T21:54:06.297Z,98332.69
2022-09-28T21:56:33.812Z,98328.38
2022-09-28T21:59:01.661Z,98340.97
2022-09-28T22:01:29.282Z,98335.66
2022-09-28T22:03:56.974Z,98341.63
2022-09-28T22:06:25.237Z,98340.44
2022-09-28T22:08:52.540Z,98341.63
2022-09-28T22:11:21.258Z,98341.78
2022-09-28T22:13:49.588Z,98349.13
2022-09-28T22:16:18.118Z,98341.38
2022-09-28T22:18:45.928Z,98344.88
2022-09-28T22:21:14.816Z,98354.63
2022-09-28T22:23:42.336Z,98349.34
2022-09-28T22:26:20.397Z,98349.34
2022-09-28T22:28:49.661Z,98344.66
2022-09-28T22:31:17.974Z,98348.91
2022-09-28T22:33:45.612Z,98348.19
2022-09-28T22:36:14.372Z,98352.53
2022-09-28T22:38:41.540Z,98350.84
2022-09-28T22:41:09.455Z,98345.72
2022-09-28T22:43:36.917Z,98349.56
2022-09-28T22:46:06.475Z,98353.03
2022-09-28T22:48:35.018Z,98349.66
2022-09-28T22:51:02.622Z,98339.34
2022-09-28T22:53:30.290Z,98346.38
2022-09-28T22:55:58.386Z,98355.78
2022-09-28T22:58:25.857Z,98355.59
2022-09-28T23:00:53.246Z,98351.91
2022-09-28T23:03:20.630Z,98350.09
2022-09-28T23:05:54.764Z,98353.88
2022-09-28T23:08:22.218Z,98356.84
2022-09-28T23:10:49.598Z,98357.06
2022-09-28T23:13:17.060Z,98351.97
2022-09-28T23:15:56.736Z,98357.91
2022-09-28T23:18:25.224Z,98357.06
2022-09-28T23:20:53.207Z,98350.81
2022-09-28T23:23:20.581Z,98358.66
2022-09-28T23:25:48.262Z,98352.41
2022-09-28T23:28:15.607Z,98356.75
2022-09-28T23:30:42.930Z,98357.72
2022-09-28T23:33:16.828Z,98351.75
2022-09-28T23:35:44.337Z,98364.38
2022-09-28T23:38:13.987Z,98354.94
2022-09-28T23:40:41.893Z,98356.84
2022-09-28T23:43:09.804Z,98364.91
2022-09-28T23:45:36.943Z,98367.53
2022-09-28T23:48:04.207Z,98367.53
2022-09-28T23:50:31.375Z,98367.75
2022-09-28T23:52:58.859Z,98377.38
2022-09-28T23:55:26.170Z,98375.47
2022-09-28T23:57:55.878Z,98380.78
